Time;durP1;ratioP1;P1;durP2;ratioP2;P2;SDS_P1;SDS_P2;PMS_P1;PMS_P2;Temp;Humidity;BMP_temperature;BMP_pressure;BME280_temperature;BME280_humidity;BME280_pressure;Samples;Min_cycle;Max_cycle;Signal;HPM_P1;HPM_P2
2023/09/05 00:01:57;;;;;;;3.83;3.43;;;21.10;99.00;;;;;;5034701;28;20395;-70
2023/09/05 00:04:22;;;;;;;6.40;3.30;;;21.00;99.10;;;;;;5034671;28;20171;-69
2023/09/05 00:06:48;;;;;;;4.13;3.73;;;21.00;99.20;;;;;;5034824;28;20175;-70
2023/09/05 00:09:15;;;;;;;3.67;3.30;;;21.10;99.30;;;;;;5034536;28;20627;-70
2023/09/05 00:11:41;;;;;;;3.27;2.97;;;21.10;99.90;;;;;;5034301;28;20221;-70
2023/09/05 00:14:09;;;;;;;3.97;3.57;;;20.90;99.90;;;;;;5034658;28;20449;-70
2023/09/05 00:16:35;;;;;;;3.60;3.30;;;21.00;99.90;;;;;;5033333;28;20167;-70
2023/09/05 00:19:00;;;;;;;3.53;3.13;;;20.90;99.90;;;;;;5034416;28;20839;-70
2023/09/05 00:21:26;;;;;;;3.17;2.87;;;20.80;99.90;;;;;;5034701;28;20246;-70
2023/09/05 00:23:51;;;;;;;3.10;2.80;;;20.70;99.90;;;;;;5034322;28;20263;-70
2023/09/05 00:26:17;;;;;;;3.10;2.80;;;20.60;99.90;;;;;;5034035;28;20726;-69
2023/09/05 00:28:43;;;;;;;2.97;2.77;;;20.50;99.90;;;;;;5034001;28;20289;-70
2023/09/05 00:31:10;;;;;;;4.90;3.07;;;20.30;99.90;;;;;;5034410;28;20207;-70
2023/09/05 00:33:36;;;;;;;3.00;2.70;;;20.30;99.50;;;;;;5035089;28;20450;-69
2023/09/05 00:36:03;;;;;;;3.70;2.93;;;20.30;99.40;;;;;;5035076;28;20457;-69
2023/09/05 00:38:29;;;;;;;4.73;3.60;;;20.30;99.20;;;;;;5033812;28;20199;-70
2023/09/05 00:40:55;;;;;;;3.10;2.80;;;20.50;99.00;;;;;;5033739;28;20924;-70
2023/09/05 00:43:21;;;;;;;3.10;2.80;;;20.40;98.80;;;;;;5033800;28;20244;-69
2023/09/05 00:45:49;;;;;;;5.90;3.10;;;20.40;99.00;;;;;;5034061;28;20954;-70
2023/09/05 00:48:27;;;;;;;3.90;2.53;;;20.40;98.70;;;;;;5034183;28;20666;-69
2023/09/05 00:50:56;;;;;;;3.03;2.73;;;20.50;99.00;;;;;;5034158;28;20742;-70
2023/09/05 00:53:26;;;;;;;3.67;3.20;;;20.50;99.10;;;;;;5033609;28;20434;-69
2023/09/05 00:55:52;;;;;;;4.23;2.83;;;20.50;99.40;;;;;;5033823;28;20406;-69
2023/09/05 00:58:19;;;;;;;3.20;2.67;;;20.50;99.30;;;;;;5033360;28;20428;-70
2023/09/05 01:00:44;;;;;;;3.20;2.83;;;20.40;99.40;;;;;;5033585;28;20498;-69
2023/09/05 01:03:10;;;;;;;4.00;2.43;;;20.50;99.40;;;;;;5032605;28;20412;-71
2023/09/05 01:05:39;;;;;;;4.00;2.97;;;20.50;99.50;;;;;;5033877;28;20167;-69
2023/09/05 01:08:29;;;;;;;3.40;3.10;;;20.50;99.50;;;;;;5033253;28;20191;-70
2023/09/05 01:11:08;;;;;;;3.77;2.83;;;20.50;99.40;;;;;;5031283;28;20418;-70
2023/09/05 01:13:36;;;;;;;3.10;2.80;;;20.40;99.70;;;;;;5033351;28;20459;-69
2023/09/05 01:16:02;;;;;;;3.30;3.00;;;20.40;99.80;;;;;;5033671;28;20475;-69
2023/09/05 01:18:33;;;;;;;3.63;3.07;;;20.20;99.90;;;;;;5033314;28;20422;-70
2023/09/05 01:21:27;;;;;;;5.63;2.50;;;20.30;99.90;;;;;;5033454;28;20150;-69
2023/09/05 01:24:14;;;;;;;3.23;2.80;;;20.30;99.90;;;;;;5033480;28;20402;-70
2023/09/05 01:26:40;;;;;;;3.17;2.87;;;20.30;99.90;;;;;;5032171;28;20390;-70
2023/09/05 01:29:08;;;;;;;4.00;3.50;;;20.30;99.90;;;;;;5032501;28;20441;-69
2023/09/05 01:31:34;;;;;;;3.73;3.30;;;20.40;99.90;;;;;;5031539;28;20525;-69
2023/09/05 01:34:00;;;;;;;3.93;2.77;;;20.40;99.90;;;;;;5032533;28;20460;-70
2023/09/05 01:36:25;;;;;;;3.87;3.20;;;20.30;99.90;;;;;;5033175;28;20769;-70
2023/09/05 01:38:51;;;;;;;3.77;3.10;;;20.20;99.90;;;;;;5032887;28;20199;-70
2023/09/05 01:41:17;;;;;;;3.27;2.77;;;20.20;99.90;;;;;;5033098;28;20171;-69
2023/09/05 01:43:43;;;;;;;4.77;2.93;;;20.00;99.90;;;;;;5033036;28;20634;-70
2023/09/05 01:46:10;;;;;;;3.30;3.00;;;19.90;99.90;;;;;;5033278;28;20258;-69
2023/09/05 01:48:35;;;;;;;3.10;2.80;;;19.90;99.90;;;;;;5032481;28;20461;-69
2023/09/05 01:51:01;;;;;;;2.80;2.60;;;19.60;99.90;;;;;;5032693;28;20445;-69
2023/09/05 01:53:26;;;;;;;3.30;3.00;;;19.40;99.90;;;;;;5032657;28;20202;-69
2023/09/05 01:55:52;;;;;;;7.10;3.63;;;19.20;99.90;;;;;;5031185;28;20725;-69
2023/09/05 01:58:18;;;;;;;3.47;2.83;;;19.00;99.90;;;;;;5032499;28;20179;-68
2023/09/05 02:00:43;;;;;;;4.20;3.33;;;18.90;99.90;;;;;;5032551;28;20167;-69
2023/09/05 02:03:10;;;;;;;4.00;2.90;;;18.90;99.90;;;;;;5031183;28;20266;-69
2023/09/05 02:05:36;;;;;;;3.30;3.00;;;18.80;99.90;;;;;;5032892;28;20179;-69
2023/09/05 02:08:02;;;;;;;3.53;2.50;;;18.80;99.90;;;;;;5033195;28;20826;-68
2023/09/05 02:10:30;;;;;;;3.63;3.27;;;18.80;99.90;;;;;;5032143;28;20368;-68
2023/09/05 02:12:55;;;;;;;3.80;3.40;;;18.70;99.90;;;;;;5031694;28;20446;-69
2023/09/05 02:15:21;;;;;;;4.10;3.67;;;18.70;99.90;;;;;;5032402;28;20410;-67
2023/09/05 02:17:47;;;;;;;2.93;2.67;;;18.70;99.90;;;;;;5032562;28;20187;-69
2023/09/05 02:20:12;;;;;;;3.73;2.90;;;18.70;99.90;;;;;;5032469;28;20250;-70
2023/09/05 02:22:38;;;;;;;4.10;3.10;;;18.60;99.90;;;;;;5032298;28;20550;-71
2023/09/05 02:25:03;;;;;;;5.50;3.00;;;18.60;99.90;;;;;;5032403;28;20490;-68
2023/09/05 02:27:29;;;;;;;3.60;2.97;;;18.60;99.90;;;;;;5031971;28;20183;-70
2023/09/05 02:30:01;;;;;;;3.90;3.27;;;18.50;99.90;;;;;;5032353;28;20661;-70
2023/09/05 02:32:29;;;;;;;3.53;3.20;;;18.40;99.90;;;;;;5032250;28;20631;-69
2023/09/05 02:34:56;;;;;;;3.40;3.10;;;18.40;99.90;;;;;;5032580;28;20406;-70
2023/09/05 02:37:21;;;;;;;4.90;3.43;;;18.30;99.90;;;;;;5032285;28;20418;-69
2023/09/05 02:39:47;;;;;;;4.93;3.53;;;18.20;99.90;;;;;;5037430;22;20963;-71
2023/09/05 02:42:13;;;;;;;3.80;3.10;;;18.20;99.90;;;;;;5019461;28;20176;-70
2023/09/05 02:44:38;;;;;;;3.97;3.20;;;18.20;99.90;;;;;;5028660;28;20170;-71
2023/09/05 02:47:04;;;;;;;4.50;3.43;;;18.20;99.90;;;;;;5030395;28;20167;-71
2023/09/05 02:49:30;;;;;;;4.53;3.77;;;18.00;99.90;;;;;;5030199;28;20527;-71
2023/09/05 02:51:59;;;;;;;4.63;3.00;;;18.00;99.90;;;;;;5023133;28;20701;-71
2023/09/05 02:54:28;;;;;;;3.33;3.03;;;18.10;99.90;;;;;;5010886;28;21034;-71
2023/09/05 02:56:54;;;;;;;3.50;3.20;;;18.00;99.90;;;;;;5010834;28;20469;-70
2023/09/05 02:59:20;;;;;;;4.93;3.10;;;17.90;99.90;;;;;;5009948;28;20422;-71
2023/09/05 03:01:46;;;;;;;3.93;3.10;;;17.80;99.90;;;;;;5016022;28;20456;-71
2023/09/05 03:04:14;;;;;;;5.83;3.37;;;17.60;99.90;;;;;;5030238;28;20402;-71
2023/09/05 03:06:39;;;;;;;4.23;3.63;;;17.70;99.90;;;;;;5030411;28;20170;-70
2023/09/05 03:09:05;;;;;;;3.50;3.07;;;17.50;99.90;;;;;;5026572;28;20936;-70
2023/09/05 03:11:30;;;;;;;4.93;3.50;;;17.50;99.90;;;;;;5020584;28;20167;-71
2023/09/05 03:13:56;;;;;;;3.33;2.97;;;17.50;99.90;;;;;;5029710;28;20246;-71
2023/09/05 03:16:23;;;;;;;4.77;3.83;;;17.50;99.90;;;;;;5030113;28;20250;-70
2023/09/05 03:18:49;;;;;;;4.10;3.47;;;17.40;99.90;;;;;;5029916;28;20649;-71
2023/09/05 03:21:15;;;;;;;8.40;3.40;;;17.40;99.90;;;;;;5028822;28;20406;-71
2023/09/05 03:23:40;;;;;;;4.53;3.47;;;17.30;99.90;;;;;;5010345;28;20557;-72
2023/09/05 03:26:06;;;;;;;4.07;3.10;;;17.30;99.90;;;;;;5011887;28;20180;-71
2023/09/05 03:28:39;;;;;;;5.70;3.50;;;17.20;99.90;;;;;;5013453;28;20192;-71
2023/09/05 03:31:05;;;;;;;5.10;3.27;;;17.30;99.90;;;;;;5030862;28;20629;-70
2023/09/05 03:33:30;;;;;;;4.30;3.53;;;17.40;99.90;;;;;;5013753;28;20442;-70
2023/09/05 03:35:56;;;;;;;4.33;3.80;;;17.50;99.90;;;;;;5012069;28;20226;-70
2023/09/05 03:38:22;;;;;;;3.50;3.20;;;17.40;99.90;;;;;;5013241;28;20295;-71
2023/09/05 03:40:47;;;;;;;3.30;3.00;;;17.30;99.90;;;;;;5013376;28;20179;-70
2023/09/05 03:43:13;;;;;;;3.43;3.03;;;17.30;99.90;;;;;;5029927;28;20171;-69
2023/09/05 03:45:38;;;;;;;6.20;3.63;;;17.30;99.90;;;;;;5032964;28;20178;-70
2023/09/05 03:48:04;;;;;;;3.27;2.97;;;17.30;99.90;;;;;;5033204;28;20574;-71
2023/09/05 03:50:30;;;;;;;4.10;3.53;;;17.30;99.90;;;;;;5015405;28;20670;-70
2023/09/05 03:52:55;;;;;;;3.50;3.00;;;17.20;99.90;;;;;;5027386;28;20532;-70
2023/09/05 03:55:21;;;;;;;3.57;3.20;;;17.10;99.90;;;;;;5032919;28;20167;-72
2023/09/05 03:57:47;;;;;;;6.73;3.50;;;17.10;99.90;;;;;;5032295;28;20637;-71
2023/09/05 04:00:13;;;;;;;3.30;3.00;;;17.10;99.90;;;;;;5032901;28;20405;-70
2023/09/05 04:02:38;;;;;;;4.17;3.50;;;17.20;99.90;;;;;;5020865;28;20335;-71
2023/09/05 04:05:04;;;;;;;3.03;2.73;;;17.20;99.90;;;;;;5012930;28;20314;-72
2023/09/05 04:07:30;;;;;;;8.23;3.70;;;17.20;99.90;;;;;;5013034;28;20336;-71
2023/09/05 04:09:56;;;;;;;3.67;3.03;;;17.30;99.90;;;;;;5011923;28;20273;-70
2023/09/05 04:12:21;;;;;;;3.50;3.20;;;17.30;99.90;;;;;;5021418;28;20253;-70
2023/09/05 04:14:48;;;;;;;3.50;3.20;;;17.20;99.90;;;;;;5032549;28;20198;-71
2023/09/05 04:17:14;;;;;;;3.87;3.30;;;17.20;99.90;;;;;;5032487;28;20159;-72
2023/09/05 04:19:39;;;;;;;3.90;3.47;;;17.30;99.90;;;;;;5032489;28;20472;-70
2023/09/05 04:22:05;;;;;;;3.30;3.00;;;17.30;99.90;;;;;;5025484;28;20215;-71
2023/09/05 04:24:30;;;;;;;3.80;3.40;;;17.20;99.90;;;;;;5012929;28;20199;-72
2023/09/05 04:26:58;;;;;;;4.97;3.10;;;17.30;99.90;;;;;;5012362;28;20559;-71
2023/09/05 04:29:24;;;;;;;4.40;4.00;;;17.20;99.90;;;;;;5012263;28;20188;-70
2023/09/05 04:31:49;;;;;;;3.73;3.33;;;17.10;99.90;;;;;;5017223;28;20784;-70
2023/09/05 04:34:16;;;;;;;3.60;3.30;;;17.10;99.90;;;;;;5032466;28;20286;-72
2023/09/05 04:36:41;;;;;;;4.33;3.93;;;17.10;99.90;;;;;;5032462;28;20191;-71
2023/09/05 04:39:08;;;;;;;4.40;3.77;;;17.20;99.90;;;;;;5032022;28;20816;-72
2023/09/05 04:41:33;;;;;;;3.50;3.10;;;17.10;99.90;;;;;;5021513;28;20313;-71
2023/09/05 04:43:59;;;;;;;5.17;3.47;;;17.00;99.90;;;;;;5031646;28;20434;-72
2023/09/05 04:46:24;;;;;;;3.37;3.07;;;17.10;99.90;;;;;;5031668;28;20260;-71
2023/09/05 04:48:50;;;;;;;4.97;3.73;;;17.20;99.90;;;;;;5011976;28;20544;-71
2023/09/05 04:51:16;;;;;;;4.67;3.57;;;17.30;99.90;;;;;;5012211;28;20544;-70
2023/09/05 04:53:41;;;;;;;5.90;3.80;;;17.30;99.90;;;;;;5011819;28;20536;-71
2023/09/05 04:56:07;;;;;;;6.30;3.57;;;17.30;99.90;;;;;;5012015;28;20168;-71
2023/09/05 04:58:33;;;;;;;4.33;3.63;;;17.40;99.90;;;;;;5028850;28;20345;-71
2023/09/05 05:01:03;;;;;;;4.00;3.60;;;17.50;99.90;;;;;;5021732;28;20170;-70
2023/09/05 05:03:30;;;;;;;4.80;4.30;;;17.50;99.90;;;;;;5011873;28;20626;-69
2023/09/05 05:05:55;;;;;;;4.90;3.70;;;17.60;99.90;;;;;;5010279;28;20403;-71
2023/09/05 05:08:21;;;;;;;3.63;3.30;;;17.60;99.90;;;;;;5011587;28;20520;-71
2023/09/05 05:10:46;;;;;;;3.60;3.07;;;17.60;99.90;;;;;;5015199;28;20202;-71
2023/09/05 05:13:12;;;;;;;4.33;3.30;;;17.70;99.90;;;;;;5031094;28;20194;-71
2023/09/05 05:15:38;;;;;;;8.17;4.00;;;17.70;99.90;;;;;;5031358;28;20168;-71
2023/09/05 05:18:04;;;;;;;4.53;3.70;;;17.70;99.90;;;;;;5031532;28;20324;-72
2023/09/05 05:20:29;;;;;;;4.43;3.80;;;17.70;99.90;;;;;;5030364;28;20178;-71
2023/09/05 05:22:55;;;;;;;5.30;4.30;;;17.70;99.90;;;;;;5011995;28;20172;-71
2023/09/05 05:25:21;;;;;;;5.43;3.50;;;17.70;99.90;;;;;;5030355;28;20183;-71
2023/09/05 05:27:46;;;;;;;4.00;3.60;;;17.70;99.90;;;;;;5030334;28;20199;-71
2023/09/05 05:30:12;;;;;;;4.10;3.70;;;17.80;99.90;;;;;;5031354;28;20434;-72
2023/09/05 05:32:38;;;;;;;4.80;3.60;;;17.70;99.90;;;;;;5012174;28;20218;-72
2023/09/05 05:35:04;;;;;;;3.30;3.00;;;17.60;99.90;;;;;;5011352;28;20809;-71
2023/09/05 05:37:30;;;;;;;3.70;3.40;;;17.60;99.90;;;;;;5010018;28;20592;-72
2023/09/05 05:39:57;;;;;;;5.63;3.73;;;17.40;99.90;;;;;;5011012;28;20297;-71
2023/09/05 05:42:22;;;;;;;4.23;3.60;;;17.40;99.90;;;;;;5010484;28;20407;-71
2023/09/05 05:44:48;;;;;;;3.97;3.30;;;17.50;99.90;;;;;;5010776;28;20164;-72
2023/09/05 05:47:13;;;;;;;5.97;3.10;;;17.60;99.90;;;;;;5010966;28;20168;-70
2023/09/05 05:49:39;;;;;;;3.80;3.00;;;17.70;99.90;;;;;;5010736;28;20196;-72
2023/09/05 05:52:05;;;;;;;6.87;3.50;;;17.80;99.90;;;;;;5024383;28;20185;-71
2023/09/05 05:54:30;;;;;;;3.63;3.17;;;17.90;99.90;;;;;;5030887;28;20354;-71
2023/09/05 05:56:56;;;;;;;3.43;3.07;;;18.00;99.90;;;;;;5030416;28;20171;-72
2023/09/05 05:59:24;;;;;;;6.77;3.77;;;18.20;99.90;;;;;;5030352;28;20191;-71
2023/09/05 06:01:52;;;;;;;4.40;4.00;;;18.20;99.90;;;;;;5019068;28;20164;-72
2023/09/05 06:04:21;;;;;;;3.83;3.50;;;18.30;99.90;;;;;;5011269;28;20411;-73
2023/09/05 06:06:48;;;;;;;4.33;3.80;;;18.40;99.90;;;;;;5010860;28;20740;-72
2023/09/05 06:09:16;;;;;;;4.23;3.80;;;18.40;99.90;;;;;;5010662;28;20937;-71
2023/09/05 06:11:41;;;;;;;5.80;3.77;;;18.60;99.90;;;;;;5020713;28;20418;-70
2023/09/05 06:14:07;;;;;;;2.83;2.63;;;18.70;99.90;;;;;;5030395;28;20465;-72
2023/09/05 06:16:32;;;;;;;3.97;3.57;;;18.80;99.90;;;;;;5030536;28;20206;-70
2023/09/05 06:18:58;;;;;;;5.63;3.40;;;18.80;99.90;;;;;;5030498;28;20226;-71
2023/09/05 06:21:23;;;;;;;3.27;2.97;;;18.90;99.90;;;;;;5014687;28;20183;-71
2023/09/05 06:23:49;;;;;;;3.27;2.70;;;19.00;99.90;;;;;;5010658;28;20176;-70
2023/09/05 06:26:16;;;;;;;3.53;3.20;;;19.10;99.90;;;;;;5011037;28;20610;-72
2023/09/05 06:28:41;;;;;;;3.27;2.97;;;19.20;99.90;;;;;;5010453;28;20219;-71
2023/09/05 06:31:07;;;;;;;4.57;3.70;;;19.30;99.90;;;;;;5022844;28;20414;-71
2023/09/05 06:33:33;;;;;;;3.67;3.37;;;19.40;99.90;;;;;;5030114;28;20227;-71
2023/09/05 06:36:04;;;;;;;3.30;3.00;;;19.60;99.90;;;;;;5030022;28;20175;-71
2023/09/05 06:38:30;;;;;;;3.73;3.33;;;19.70;99.90;;;;;;5030100;28;20334;-69
2023/09/05 06:40:55;;;;;;;3.40;3.10;;;19.80;99.90;;;;;;5019062;28;20457;-71
2023/09/05 06:43:21;;;;;;;4.30;3.17;;;19.90;99.90;;;;;;5009910;28;20183;-72
2023/09/05 06:45:46;;;;;;;4.23;3.17;;;19.90;99.90;;;;;;5010469;28;20168;-71
2023/09/05 06:48:12;;;;;;;3.10;2.80;;;19.90;99.90;;;;;;5010444;28;20196;-71
2023/09/05 06:50:37;;;;;;;5.50;3.70;;;19.90;99.90;;;;;;5018340;28;20701;-72
2023/09/05 06:53:03;;;;;;;3.77;3.40;;;20.00;99.90;;;;;;5029026;28;20575;-72
2023/09/05 06:55:34;;;;;;;2.80;2.50;;;20.20;99.90;;;;;;5029603;28;20265;-71
2023/09/05 06:58:00;;;;;;;2.90;2.60;;;20.40;99.90;;;;;;5029689;28;20236;-71
2023/09/05 07:00:27;;;;;;;3.10;2.47;;;20.50;99.90;;;;;;5024494;28;20753;-71
2023/09/05 07:02:53;;;;;;;3.87;2.83;;;20.70;99.90;;;;;;5013956;28;20226;-70
2023/09/05 07:05:19;;;;;;;4.17;3.57;;;20.90;99.90;;;;;;5016538;28;20410;-72
2023/09/05 07:07:44;;;;;;;3.63;3.10;;;21.00;99.90;;;;;;5013619;28;20528;-70
2023/09/05 07:10:10;;;;;;;3.47;2.83;;;21.10;99.90;;;;;;5016399;28;20187;-71
2023/09/05 07:12:36;;;;;;;2.63;2.43;;;21.20;99.90;;;;;;5013480;28;20191;-71
2023/09/05 07:15:01;;;;;;;16.20;8.47;;;21.40;99.90;;;;;;5013640;28;20186;-70
2023/09/05 07:17:27;;;;;;;2.80;2.50;;;21.50;99.90;;;;;;5013357;28;20410;-71
2023/09/05 07:19:52;;;;;;;3.10;2.67;;;21.30;99.90;;;;;;5015362;28;20277;-71
2023/09/05 07:22:18;;;;;;;3.73;3.27;;;21.10;99.90;;;;;;5025987;28;20175;-71
2023/09/05 07:24:43;;;;;;;4.00;2.83;;;21.10;99.90;;;;;;5013772;28;20168;-71
2023/09/05 07:27:10;;;;;;;3.17;2.80;;;21.10;99.90;;;;;;5013516;28;20173;-72
2023/09/05 07:29:35;;;;;;;3.30;2.93;;;21.40;99.90;;;;;;5013562;28;20245;-71
2023/09/05 07:32:01;;;;;;;3.70;2.63;;;21.50;99.90;;;;;;5032458;28;20402;-71
2023/09/05 07:34:27;;;;;;;4.50;2.80;;;21.40;99.90;;;;;;5033283;28;20191;-71
2023/09/05 07:36:54;;;;;;;3.30;3.03;;;21.50;99.90;;;;;;5033590;28;20167;-72
2023/09/05 07:39:20;;;;;;;3.57;2.57;;;21.40;99.90;;;;;;5030364;28;20581;-71
2023/09/05 07:41:46;;;;;;;4.30;2.60;;;21.50;99.90;;;;;;5015565;28;20493;-71
2023/09/05 07:44:12;;;;;;;2.73;2.47;;;21.50;99.90;;;;;;5013343;28;20254;-71
2023/09/05 07:46:37;;;;;;;3.20;2.90;;;21.60;99.90;;;;;;5013295;28;20443;-72
2023/09/05 07:49:03;;;;;;;4.23;3.00;;;21.70;99.90;;;;;;5013349;28;20210;-70
2023/09/05 07:51:29;;;;;;;2.97;2.40;;;21.90;99.90;;;;;;5027882;28;20186;-72
2023/09/05 07:54:04;;;;;;;6.33;3.20;;;22.10;99.90;;;;;;5032830;28;20532;-71
2023/09/05 07:56:31;;;;;;;4.97;3.27;;;22.00;99.90;;;;;;5033108;28;20194;-73
2023/09/05 07:58:57;;;;;;;3.37;2.53;;;22.00;99.90;;;;;;5032359;28;20848;-71
2023/09/05 08:01:23;;;;;;;2.70;2.37;;;22.00;99.90;;;;;;5029066;28;20406;-70
2023/09/05 08:03:49;;;;;;;3.37;3.07;;;22.10;99.90;;;;;;5032903;28;20215;-72
2023/09/05 08:06:15;;;;;;;4.63;2.83;;;22.20;99.90;;;;;;5033148;28;20441;-71
2023/09/05 08:08:40;;;;;;;4.67;3.27;;;22.30;99.90;;;;;;5033125;28;20229;-70
2023/09/05 08:11:06;;;;;;;3.20;2.70;;;22.20;99.90;;;;;;5030406;28;20171;-71
2023/09/05 08:13:32;;;;;;;2.97;2.67;;;22.40;99.90;;;;;;5032221;28;20215;-72
2023/09/05 08:15:58;;;;;;;3.50;2.70;;;22.40;99.90;;;;;;5032643;28;20842;-72
2023/09/05 08:18:24;;;;;;;4.10;2.90;;;22.60;99.90;;;;;;5032382;28;20731;-72
2023/09/05 08:20:50;;;;;;;3.20;2.70;;;22.60;99.90;;;;;;5025947;28;20411;-72
2023/09/05 08:23:15;;;;;;;4.13;3.13;;;22.60;99.90;;;;;;5012650;28;20682;-70
2023/09/05 08:25:41;;;;;;;5.23;3.20;;;22.60;99.90;;;;;;5012419;28;20489;-71
2023/09/05 08:28:07;;;;;;;2.60;2.40;;;22.70;99.90;;;;;;5012382;28;20704;-71
2023/09/05 08:30:32;;;;;;;2.97;2.40;;;22.80;99.90;;;;;;5014951;28;20198;-71
2023/09/05 08:33:01;;;;;;;3.00;2.07;;;22.80;99.90;;;;;;5032159;28;20191;-71
2023/09/05 08:35:27;;;;;;;4.10;2.70;;;22.70;99.90;;;;;;5032531;28;20254;-71
2023/09/05 08:37:53;;;;;;;3.17;2.73;;;22.80;99.90;;;;;;5032284;28;20877;-71
2023/09/05 08:40:20;;;;;;;3.47;2.70;;;22.90;99.90;;;;;;5041037;22;20490;-69
2023/09/05 08:42:49;;;;;;;3.73;2.53;;;23.00;99.90;;;;;;5013362;28;20258;-69
2023/09/05 08:45:19;;;;;;;3.07;2.77;;;22.90;99.90;;;;;;5013975;28;20928;-69
2023/09/05 08:47:45;;;;;;;3.00;2.60;;;23.00;99.90;;;;;;5014262;28;20379;-70
2023/09/05 08:50:11;;;;;;;3.70;2.60;;;23.00;99.90;;;;;;5013975;28;20489;-69
2023/09/05 08:52:39;;;;;;;4.63;2.93;;;23.00;99.90;;;;;;5014162;28;20196;-70
2023/09/05 08:55:06;;;;;;;3.17;2.60;;;23.20;99.90;;;;;;5014257;28;20414;-70
2023/09/05 08:57:33;;;;;;;3.00;2.70;;;23.40;99.90;;;;;;5013514;28;20406;-69
2023/09/05 09:00:04;;;;;;;5.53;2.90;;;23.20;99.90;;;;;;5013575;28;20419;-70
2023/09/05 09:02:30;;;;;;;4.30;3.67;;;23.10;99.90;;;;;;5013824;28;20407;-70
2023/09/05 09:04:56;;;;;;;2.83;2.63;;;23.10;99.90;;;;;;5013805;28;20411;-69
2023/09/05 09:07:30;;;;;;;3.10;2.53;;;23.30;99.90;;;;;;5013359;28;20847;-70
2023/09/05 09:09:59;;;;;;;3.13;2.83;;;23.50;99.90;;;;;;4994049;28;20249;-70
2023/09/05 09:12:32;;;;;;;3.23;2.23;;;23.50;99.90;;;;;;5010931;28;20407;-69
2023/09/05 09:15:12;;;;;;;3.07;2.70;;;23.50;99.90;;;;;;5013437;28;20456;-70
2023/09/05 09:17:41;;;;;;;2.87;2.53;;;23.50;99.90;;;;;;5013465;28;20413;-70
2023/09/05 09:20:12;;;;;;;3.07;2.33;;;23.50;99.90;;;;;;5013278;28;20427;-69
2023/09/05 09:22:38;;;;;;;3.80;2.77;;;23.70;99.90;;;;;;5012984;28;20395;-70
2023/09/05 09:25:22;;;;;;;4.47;2.90;;;23.90;99.90;;;;;;5013383;28;20453;-70
2023/09/05 09:27:57;;;;;;;2.80;2.60;;;23.90;99.90;;;;;;5013220;28;20818;-69
2023/09/05 09:30:27;;;;;;;2.70;2.50;;;24.10;99.90;;;;;;5012779;28;20960;-70
2023/09/05 09:32:53;;;;;;;2.80;2.33;;;24.20;99.90;;;;;;5012848;28;20450;-69
2023/09/05 09:35:20;;;;;;;2.60;2.40;;;24.20;99.90;;;;;;5013884;28;20414;-69
2023/09/05 09:37:47;;;;;;;2.93;2.40;;;24.10;99.90;;;;;;5012981;28;20402;-70
2023/09/05 09:40:16;;;;;;;2.50;2.30;;;24.10;99.90;;;;;;5013112;28;20438;-70
2023/09/05 09:42:45;;;;;;;2.80;2.60;;;24.30;99.50;;;;;;5013101;28;20407;-70
2023/09/05 09:45:11;;;;;;;3.30;2.47;;;24.40;99.60;;;;;;5013016;28;20422;-70
2023/09/05 09:47:45;;;;;;;2.80;2.13;;;24.50;99.70;;;;;;5013148;28;20760;-70
2023/09/05 09:50:11;;;;;;;2.27;2.07;;;24.80;99.50;;;;;;5012991;28;20234;-70
2023/09/05 09:52:40;;;;;;;2.13;1.80;;;24.70;98.20;;;;;;5012940;28;20407;-69
2023/09/05 09:55:08;;;;;;;3.27;2.30;;;24.70;99.10;;;;;;5013044;28;20407;-69
2023/09/05 09:57:40;;;;;;;4.10;1.90;;;24.70;98.40;;;;;;5012885;28;20431;-70
2023/09/05 10:00:09;;;;;;;3.63;2.53;;;24.70;98.80;;;;;;4994785;28;20438;-70
2023/09/05 10:02:38;;;;;;;2.30;2.10;;;24.90;98.80;;;;;;5012739;28;20988;-71
2023/09/05 10:05:04;;;;;;;2.40;2.20;;;25.10;98.00;;;;;;5012833;28;20450;-70
2023/09/05 10:07:30;;;;;;;3.30;2.60;;;25.10;97.70;;;;;;4995911;28;20445;-71
2023/09/05 10:09:56;;;;;;;5.43;2.20;;;25.00;97.70;;;;;;5012919;28;20840;-71
2023/09/05 10:12:24;;;;;;;4.97;2.53;;;24.90;97.80;;;;;;5012699;28;20168;-71
2023/09/05 10:14:54;;;;;;;4.00;2.43;;;24.90;97.80;;;;;;5012934;28;20414;-70
2023/09/05 10:17:21;;;;;;;2.40;2.03;;;25.10;97.90;;;;;;5013090;28;20403;-71
2023/09/05 10:19:49;;;;;;;6.20;1.90;;;25.40;97.60;;;;;;5012953;28;20510;-70
2023/09/05 10:22:16;;;;;;;3.10;2.13;;;25.40;97.60;;;;;;5013041;28;20925;-70
2023/09/05 10:24:43;;;;;;;2.00;1.80;;;25.40;97.20;;;;;;5012720;28;20490;-71
2023/09/05 10:27:10;;;;;;;2.77;2.00;;;25.70;98.20;;;;;;5012657;28;20411;-71
2023/09/05 10:30:02;;;;;;;1.80;1.70;;;25.80;97.90;;;;;;4995088;28;20876;-70
2023/09/05 10:32:29;;;;;;;2.20;2.00;;;26.00;96.90;;;;;;5008891;28;20509;-70
2023/09/05 10:34:59;;;;;;;2.30;2.10;;;26.10;96.20;;;;;;5014935;28;20494;-70
2023/09/05 10:37:38;;;;;;;2.60;2.40;;;26.00;96.20;;;;;;5016551;28;20411;-71
2023/09/05 10:40:09;;;;;;;2.97;2.10;;;25.90;96.20;;;;;;5016696;28;20544;-71
2023/09/05 10:42:42;;;;;;;2.20;2.00;;;25.80;95.70;;;;;;5016697;28;20454;-70
2023/09/05 10:45:23;;;;;;;1.97;1.77;;;26.20;96.30;;;;;;4999954;28;20443;-69
2023/09/05 10:47:54;;;;;;;3.50;2.20;;;26.80;94.30;;;;;;5018359;28;20496;-71
2023/09/05 10:50:20;;;;;;;4.37;2.30;;;28.40;92.80;;;;;;5028976;28;20490;-71
2023/09/05 10:53:12;;;;;;;1.97;1.60;;;29.80;90.70;;;;;;5029031;28;20442;-70
2023/09/05 10:55:46;;;;;;;2.60;1.77;;;30.60;86.10;;;;;;5011253;28;20442;-71
2023/09/05 10:58:41;;;;;;;2.23;1.63;;;31.90;82.70;;;;;;5029239;28;20387;-71
2023/09/05 11:01:44;;;;;;;2.50;2.00;;;31.70;76.10;;;;;;5029902;28;20459;-70
2023/09/05 11:04:19;;;;;;;2.13;1.70;;;31.50;78.50;;;;;;5029476;28;20762;-71
2023/09/05 11:06:58;;;;;;;1.70;1.60;;;32.50;74.00;;;;;;5021916;28;20600;-69
2023/09/05 11:09:26;;;;;;;2.47;1.60;;;31.90;74.00;;;;;;5018876;28;20572;-72
2023/09/05 11:11:53;;;;;;;2.43;1.80;;;32.60;73.20;;;;;;5019819;28;20557;-70
2023/09/05 11:14:29;;;;;;;1.80;1.70;;;32.40;68.30;;;;;;5014667;28;20985;-69
2023/09/05 11:16:56;;;;;;;1.83;1.60;;;32.30;70.70;;;;;;4991954;28;20778;-70
2023/09/05 11:19:29;;;;;;;3.13;1.63;;;32.20;69.60;;;;;;5006762;28;21223;-70
2023/09/05 11:22:19;;;;;;;2.43;1.93;;;32.50;67.80;;;;;;5006597;28;20810;-70
2023/09/05 11:24:58;;;;;;;2.47;1.87;;;33.40;66.60;;;;;;5010042;28;21005;-70
2023/09/05 11:27:26;;;;;;;3.13;1.87;;;34.30;64.10;;;;;;5015986;28;20960;-70
2023/09/05 11:29:55;;;;;;;2.00;1.77;;;34.40;62.40;;;;;;5015681;28;20434;-70
2023/09/05 11:32:31;;;;;;;2.40;1.70;;;34.90;60.30;;;;;;5015793;28;20448;-70
2023/09/05 11:34:57;;;;;;;3.13;1.77;;;35.00;58.40;;;;;;5015096;28;20432;-70
2023/09/05 11:37:23;;;;;;;1.83;1.73;;;33.80;61.70;;;;;;5015775;28;20384;-70
2023/09/05 11:39:49;;;;;;;2.67;1.60;;;35.10;59.30;;;;;;5015364;28;20461;-71
2023/09/05 11:42:22;;;;;;;4.27;2.00;;;35.60;58.30;;;;;;5015083;28;20164;-70
2023/09/05 11:44:49;;;;;;;3.70;1.93;;;34.60;58.20;;;;;;5015578;28;20384;-69
2023/09/05 11:47:15;;;;;;;2.30;1.90;;;34.30;59.30;;;;;;5014627;28;20882;-70
2023/09/05 11:49:41;;;;;;;4.07;1.83;;;34.20;58.90;;;;;;5016067;28;20427;-72
2023/09/05 11:52:08;;;;;;;2.57;1.70;;;34.90;58.40;;;;;;5015326;28;20929;-72
2023/09/05 11:54:34;;;;;;;3.10;1.70;;;35.80;58.80;;;;;;5015056;28;20451;-73
2023/09/05 11:57:02;;;;;;;2.47;2.00;;;36.10;57.30;;;;;;5014960;28;20434;-73
2023/09/05 11:59:29;;;;;;;1.67;1.57;;;35.30;57.70;;;;;;5015076;28;20196;-73
2023/09/05 12:01:54;;;;;;;2.40;1.50;;;36.90;55.40;;;;;;5014869;28;20984;-72
2023/09/05 12:04:21;;;;;;;2.60;1.50;;;35.20;54.40;;;;;;5015933;28;20411;-72
2023/09/05 12:06:50;;;;;;;3.43;1.70;;;35.80;56.10;;;;;;5015501;28;20180;-73
2023/09/05 12:09:16;;;;;;;2.57;1.90;;;34.60;52.90;;;;;;5014695;28;20418;-73
2023/09/05 12:11:42;;;;;;;2.20;1.70;;;34.60;54.90;;;;;;5014567;28;20415;-73
2023/09/05 12:14:07;;;;;;;2.90;1.70;;;34.90;56.30;;;;;;5014443;28;20220;-72
2023/09/05 12:16:33;;;;;;;2.03;1.50;;;34.80;55.50;;;;;;5014708;28;20164;-73
2023/09/05 12:19:03;;;;;;;1.60;1.50;;;34.80;56.00;;;;;;5014799;28;20363;-73
2023/09/05 12:21:42;;;;;;;1.73;1.60;;;35.50;54.50;;;;;;5014523;28;20160;-73
2023/09/05 12:24:22;;;;;;;2.37;1.97;;;37.10;53.30;;;;;;5015214;28;20399;-73
2023/09/05 12:26:59;;;;;;;1.53;1.30;;;38.00;52.00;;;;;;5014886;28;20788;-73
2023/09/05 12:29:41;;;;;;;2.10;1.83;;;37.10;50.20;;;;;;5014357;28;20435;-73
2023/09/05 12:32:07;;;;;;;2.53;1.50;;;36.10;52.10;;;;;;5014511;28;20545;-72
2023/09/05 12:34:33;;;;;;;1.53;1.40;;;34.80;53.30;;;;;;5014500;28;20908;-73
2023/09/05 12:36:58;;;;;;;3.47;1.63;;;35.60;52.60;;;;;;5014384;28;20172;-73
2023/09/05 12:39:24;;;;;;;2.23;1.57;;;35.30;53.00;;;;;;4996135;28;20207;-73
2023/09/05 12:41:50;;;;;;;1.50;1.30;;;36.10;53.10;;;;;;5014044;28;20616;-73
2023/09/05 12:44:15;;;;;;;2.40;1.60;;;35.70;52.60;;;;;;5013835;28;20634;-73
2023/09/05 12:46:42;;;;;;;2.23;1.40;;;36.20;53.00;;;;;;5014275;28;20176;-73
2023/09/05 12:49:10;;;;;;;1.70;1.50;;;35.30;53.60;;;;;;5013873;28;20184;-73
2023/09/05 12:51:35;;;;;;;2.30;1.57;;;35.50;52.30;;;;;;5014270;28;20529;-73